Details From YGLA - Gladstone
To YBUD - Bundaberg
Flight Number -
Tags decoded
Created
Modified
Stats Distance 88 nm / 164 km
Max Altitude 0 ft / 0 m
Waypoints 3
Social Downloads 105
Likes 0
Share

Download

Looking for another format? Having issues loading an existing format? Contact us
Advertisement - Login to hide

Notes

Requested: YGLA GLA YBUD

Route

YGLA GLA YBUD

ID Type Via Altitude (ft/m) Position (lat/lon) Dist (leg/tot) Name
O YGLA APT - 0 / 0 -23.86960 / 151.22500 - / 0 nm Gladstone
GLA VOR - 0 / 0 -23.86530 / 151.20400 1 / 1 nm GLADSTONE
O YBUD APT - 0 / 0 -24.90340 / 152.32000 87 / 88 nm Bundaberg

Altitude Profile

Advertisement - Login to hide

YGLA

Details ICAO YGLA (GLT)
Name Gladstone
Region Australia
Timezone Australia/Brisbane (UTC+10.0)
Stats Elevation 58 ft / 18 m (AMSL)
Location -23.869600° 151.225000°
Runways 1
Magnetic Variation 9.509° E

METAR

YGLA 210030Z AUTO 06010KT 9999 // SCT028 BKN043 OVC051 25/17 Q1015

Decode

TAF

TAF YGLA 201705Z 2018/2106 10010KT 9999 -SHRA SCT015 BKN025 FM210400 05010KT 9999 NSW FEW025 SCT050 INTER 2018/2103 3000 SHRA BKN015

Decode

Departure Runways

ID Width Length Bearing (true/mag) Surface Threshold Overrun Markings Lighting
10 148 ft / 45 m 6,305 ft / 1,922 m 110.23° / 100.73° ASPHALT 315 ft / 96 m 0 ft / 0 m PREC-APP CENTERLINE EDGE THRESHOLD REIL-OMNI
28 148 ft / 45 m 6,305 ft / 1,922 m 290.23° / 280.72° ASPHALT 551 ft / 168 m 0 ft / 0 m PREC-APP CENTERLINE EDGE THRESHOLD

YBUD

Details ICAO YBUD (BDB)
Name Bundaberg
Region Australia
Timezone Australia/Brisbane (UTC+10.0)
Stats Elevation 106 ft / 32 m (AMSL)
Location -24.903400° 152.320000°
Runways 2
Magnetic Variation 10.075° E

METAR

YBUD 210100Z AUTO 05009KT 9999 // SCT036 BKN051 26/14 Q1015

Decode

TAF

Not found

Destination Runways

ID Width Length Bearing (true/mag) Surface Threshold Overrun Markings Lighting
07 95 ft / 29 m 3,704 ft / 1,129 m 68.50° / 58.43° GRASS 0 ft / 0 m 0 ft / 0 m NONE
14 98 ft / 30 m 5,042 ft / 1,537 m 147.90° / 137.83° ASPHALT 331 ft / 101 m 30 ft / 9 m APP EDGE THRESHOLD
25 95 ft / 29 m 3,704 ft / 1,129 m 248.50° / 238.42° GRASS 0 ft / 0 m 0 ft / 0 m NONE
32 98 ft / 30 m 5,042 ft / 1,537 m 327.90° / 317.82° ASPHALT 0 ft / 0 m 39 ft / 12 m APP EDGE THRESHOLD

Popular Alternatives